sensor_id;sensor_type;location;lat;lon;timestamp;P1;durP1;ratioP1;P2;durP2;ratioP2
56102;SDS011;41970;48.774;9.280;2023-09-12T00:01:28;8.93;;;8.10;;
56102;SDS011;41970;48.774;9.280;2023-09-12T00:03:57;12.97;;;7.43;;
56102;SDS011;41970;48.774;9.280;2023-09-12T00:06:23;14.53;;;8.23;;
56102;SDS011;41970;48.774;9.280;2023-09-12T00:08:49;9.53;;;8.53;;
56102;SDS011;41970;48.774;9.280;2023-09-12T00:11:16;12.20;;;7.83;;
56102;SDS011;41970;48.774;9.280;2023-09-12T00:13:43;8.23;;;7.53;;
56102;SDS011;41970;48.774;9.280;2023-09-12T00:16:09;8.57;;;7.67;;
56102;SDS011;41970;48.774;9.280;2023-09-12T00:18:35;10.73;;;7.70;;
56102;SDS011;41970;48.774;9.280;2023-09-12T00:21:04;9.47;;;8.30;;
56102;SDS011;41970;48.774;9.280;2023-09-12T00:23:30;8.60;;;7.47;;
56102;SDS011;41970;48.774;9.280;2023-09-12T00:25:56;10.03;;;8.60;;
56102;SDS011;41970;48.774;9.280;2023-09-12T00:28:22;11.20;;;7.80;;
56102;SDS011;41970;48.774;9.280;2023-09-12T00:30:48;10.13;;;8.13;;
56102;SDS011;41970;48.774;9.280;2023-09-12T00:33:14;9.40;;;8.20;;
56102;SDS011;41970;48.774;9.280;2023-09-12T00:35:40;9.77;;;8.43;;
56102;SDS011;41970;48.774;9.280;2023-09-12T00:38:06;10.63;;;8.77;;
56102;SDS011;41970;48.774;9.280;2023-09-12T00:40:32;8.83;;;7.93;;
56102;SDS011;41970;48.774;9.280;2023-09-12T00:42:58;11.03;;;9.27;;
56102;SDS011;41970;48.774;9.280;2023-09-12T00:45:24;10.77;;;8.20;;
56102;SDS011;41970;48.774;9.280;2023-09-12T00:47:50;11.23;;;7.90;;
56102;SDS011;41970;48.774;9.280;2023-09-12T00:50:17;10.50;;;8.37;;
56102;SDS011;41970;48.774;9.280;2023-09-12T00:52:46;10.70;;;9.60;;
56102;SDS011;41970;48.774;9.280;2023-09-12T00:55:12;10.43;;;9.17;;
56102;SDS011;41970;48.774;9.280;2023-09-12T00:57:38;9.97;;;8.97;;
56102;SDS011;41970;48.774;9.280;2023-09-12T01:00:06;12.00;;;8.80;;
56102;SDS011;41970;48.774;9.280;2023-09-12T01:02:37;9.83;;;8.73;;
56102;SDS011;41970;48.774;9.280;2023-09-12T01:05:05;9.37;;;8.57;;
56102;SDS011;41970;48.774;9.280;2023-09-12T01:07:32;9.17;;;8.00;;
56102;SDS011;41970;48.774;9.280;2023-09-12T01:09:59;13.00;;;9.07;;
56102;SDS011;41970;48.774;9.280;2023-09-12T01:12:25;11.83;;;8.60;;
56102;SDS011;41970;48.774;9.280;2023-09-12T01:14:50;13.10;;;9.73;;
56102;SDS011;41970;48.774;9.280;2023-09-12T01:17:16;11.30;;;10.10;;
56102;SDS011;41970;48.774;9.280;2023-09-12T01:19:42;9.40;;;8.03;;
56102;SDS011;41970;48.774;9.280;2023-09-12T01:24:46;10.73;;;8.23;;
56102;SDS011;41970;48.774;9.280;2023-09-12T01:27:21;9.90;;;8.57;;
56102;SDS011;41970;48.774;9.280;2023-09-12T01:29:53;11.87;;;9.77;;
56102;SDS011;41970;48.774;9.280;2023-09-12T01:32:22;11.73;;;8.70;;
56102;SDS011;41970;48.774;9.280;2023-09-12T01:34:48;9.90;;;8.60;;
56102;SDS011;41970;48.774;9.280;2023-09-12T01:37:14;13.60;;;10.30;;
56102;SDS011;41970;48.774;9.280;2023-09-12T01:39:40;10.13;;;9.13;;
56102;SDS011;41970;48.774;9.280;2023-09-12T01:42:08;10.83;;;8.93;;
56102;SDS011;41970;48.774;9.280;2023-09-12T01:44:39;10.93;;;9.23;;
56102;SDS011;41970;48.774;9.280;2023-09-12T01:47:08;12.53;;;10.23;;
56102;SDS011;41970;48.774;9.280;2023-09-12T01:49:35;11.37;;;7.67;;
56102;SDS011;41970;48.774;9.280;2023-09-12T01:52:04;11.00;;;9.20;;
56102;SDS011;41970;48.774;9.280;2023-09-12T01:54:31;10.30;;;8.77;;
56102;SDS011;41970;48.774;9.280;2023-09-12T01:56:59;9.87;;;8.87;;
56102;SDS011;41970;48.774;9.280;2023-09-12T01:59:26;10.10;;;9.07;;
56102;SDS011;41970;48.774;9.280;2023-09-12T02:01:53;10.07;;;8.63;;
56102;SDS011;41970;48.774;9.280;2023-09-12T02:04:19;12.10;;;9.50;;
56102;SDS011;41970;48.774;9.280;2023-09-12T02:06:44;10.37;;;9.33;;
56102;SDS011;41970;48.774;9.280;2023-09-12T02:09:10;9.77;;;8.77;;
56102;SDS011;41970;48.774;9.280;2023-09-12T02:11:36;11.77;;;9.20;;
56102;SDS011;41970;48.774;9.280;2023-09-12T02:14:01;10.00;;;8.53;;
56102;SDS011;41970;48.774;9.280;2023-09-12T02:16:28;11.87;;;7.83;;
56102;SDS011;41970;48.774;9.280;2023-09-12T02:18:54;13.13;;;10.57;;
56102;SDS011;41970;48.774;9.280;2023-09-12T02:21:20;10.03;;;9.00;;
56102;SDS011;41970;48.774;9.280;2023-09-12T02:23:45;10.40;;;9.13;;
56102;SDS011;41970;48.774;9.280;2023-09-12T02:26:11;12.30;;;9.50;;
56102;SDS011;41970;48.774;9.280;2023-09-12T02:28:37;13.00;;;8.20;;
56102;SDS011;41970;48.774;9.280;2023-09-12T02:31:03;10.23;;;8.63;;
56102;SDS011;41970;48.774;9.280;2023-09-12T02:33:28;9.33;;;8.40;;
56102;SDS011;41970;48.774;9.280;2023-09-12T02:35:54;10.77;;;9.77;;
56102;SDS011;41970;48.774;9.280;2023-09-12T02:38:20;8.33;;;7.53;;
56102;SDS011;41970;48.774;9.280;2023-09-12T02:40:45;9.33;;;7.87;;
56102;SDS011;41970;48.774;9.280;2023-09-12T02:43:11;11.13;;;9.27;;
56102;SDS011;41970;48.774;9.280;2023-09-12T02:45:37;9.93;;;9.03;;
56102;SDS011;41970;48.774;9.280;2023-09-12T02:48:02;10.63;;;8.23;;
56102;SDS011;41970;48.774;9.280;2023-09-12T02:50:29;11.70;;;9.03;;
56102;SDS011;41970;48.774;9.280;2023-09-12T02:52:54;11.20;;;8.57;;
56102;SDS011;41970;48.774;9.280;2023-09-12T02:55:20;9.40;;;8.20;;
56102;SDS011;41970;48.774;9.280;2023-09-12T02:57:45;10.80;;;8.90;;
56102;SDS011;41970;48.774;9.280;2023-09-12T03:00:13;10.67;;;8.40;;
56102;SDS011;41970;48.774;9.280;2023-09-12T03:02:39;10.40;;;9.27;;
56102;SDS011;41970;48.774;9.280;2023-09-12T03:05:04;14.40;;;10.50;;
56102;SDS011;41970;48.774;9.280;2023-09-12T03:07:30;14.97;;;9.80;;
56102;SDS011;41970;48.774;9.280;2023-09-12T03:09:56;11.30;;;8.70;;
56102;SDS011;41970;48.774;9.280;2023-09-12T03:12:22;10.00;;;8.70;;
56102;SDS011;41970;48.774;9.280;2023-09-12T03:14:47;10.20;;;9.17;;
56102;SDS011;41970;48.774;9.280;2023-09-12T03:17:13;12.70;;;9.73;;
56102;SDS011;41970;48.774;9.280;2023-09-12T03:19:39;11.23;;;9.27;;
56102;SDS011;41970;48.774;9.280;2023-09-12T03:22:05;10.90;;;9.63;;
56102;SDS011;41970;48.774;9.280;2023-09-12T03:24:30;9.80;;;8.80;;
56102;SDS011;41970;48.774;9.280;2023-09-12T03:26:56;14.10;;;9.73;;
56102;SDS011;41970;48.774;9.280;2023-09-12T03:29:22;9.90;;;8.30;;
56102;SDS011;41970;48.774;9.280;2023-09-12T03:31:48;10.37;;;9.27;;
56102;SDS011;41970;48.774;9.280;2023-09-12T03:34:13;10.80;;;9.70;;
56102;SDS011;41970;48.774;9.280;2023-09-12T03:36:39;10.50;;;9.47;;
56102;SDS011;41970;48.774;9.280;2023-09-12T03:39:05;12.43;;;9.43;;
56102;SDS011;41970;48.774;9.280;2023-09-12T03:41:33;12.20;;;9.83;;
56102;SDS011;41970;48.774;9.280;2023-09-12T03:44:00;11.63;;;10.00;;
56102;SDS011;41970;48.774;9.280;2023-09-12T03:46:25;14.60;;;10.13;;
56102;SDS011;41970;48.774;9.280;2023-09-12T03:48:51;12.80;;;9.03;;
56102;SDS011;41970;48.774;9.280;2023-09-12T03:51:17;11.37;;;8.93;;
56102;SDS011;41970;48.774;9.280;2023-09-12T03:53:43;11.03;;;9.83;;
56102;SDS011;41970;48.774;9.280;2023-09-12T03:56:08;12.07;;;10.13;;
56102;SDS011;41970;48.774;9.280;2023-09-12T03:58:37;13.33;;;9.67;;
56102;SDS011;41970;48.774;9.280;2023-09-12T04:01:04;12.00;;;9.83;;
56102;SDS011;41970;48.774;9.280;2023-09-12T04:03:29;10.30;;;9.30;;
56102;SDS011;41970;48.774;9.280;2023-09-12T04:05:55;14.30;;;9.67;;
56102;SDS011;41970;48.774;9.280;2023-09-12T04:08:21;11.20;;;10.03;;
56102;SDS011;41970;48.774;9.280;2023-09-12T04:10:46;10.00;;;8.80;;
56102;SDS011;41970;48.774;9.280;2023-09-12T04:13:12;9.47;;;8.57;;
56102;SDS011;41970;48.774;9.280;2023-09-12T04:15:38;10.13;;;9.10;;
56102;SDS011;41970;48.774;9.280;2023-09-12T04:18:04;9.77;;;8.80;;
56102;SDS011;41970;48.774;9.280;2023-09-12T04:20:30;11.10;;;8.80;;
56102;SDS011;41970;48.774;9.280;2023-09-12T04:22:56;9.70;;;8.70;;
56102;SDS011;41970;48.774;9.280;2023-09-12T04:25:21;11.23;;;10.10;;
56102;SDS011;41970;48.774;9.280;2023-09-12T04:27:47;12.33;;;10.57;;
56102;SDS011;41970;48.774;9.280;2023-09-12T04:30:13;14.47;;;9.60;;
56102;SDS011;41970;48.774;9.280;2023-09-12T04:32:38;12.30;;;9.90;;
56102;SDS011;41970;48.774;9.280;2023-09-12T04:35:05;11.70;;;9.87;;
56102;SDS011;41970;48.774;9.280;2023-09-12T04:37:31;12.13;;;10.80;;
56102;SDS011;41970;48.774;9.280;2023-09-12T04:39:56;16.63;;;10.83;;
56102;SDS011;41970;48.774;9.280;2023-09-12T04:42:22;15.47;;;9.27;;
56102;SDS011;41970;48.774;9.280;2023-09-12T04:44:48;11.60;;;10.43;;
56102;SDS011;41970;48.774;9.280;2023-09-12T04:47:14;10.27;;;9.23;;
56102;SDS011;41970;48.774;9.280;2023-09-12T04:49:39;12.90;;;9.20;;
56102;SDS011;41970;48.774;9.280;2023-09-12T04:52:06;11.23;;;10.13;;
56102;SDS011;41970;48.774;9.280;2023-09-12T04:54:31;10.50;;;9.40;;
56102;SDS011;41970;48.774;9.280;2023-09-12T04:56:57;9.77;;;8.53;;
56102;SDS011;41970;48.774;9.280;2023-09-12T04:59:23;10.97;;;9.90;;
56102;SDS011;41970;48.774;9.280;2023-09-12T05:01:49;11.63;;;9.70;;
56102;SDS011;41970;48.774;9.280;2023-09-12T05:04:15;11.57;;;10.47;;
56102;SDS011;41970;48.774;9.280;2023-09-12T05:06:41;12.10;;;9.00;;
56102;SDS011;41970;48.774;9.280;2023-09-12T05:09:07;12.87;;;10.17;;
56102;SDS011;41970;48.774;9.280;2023-09-12T05:11:34;12.20;;;8.83;;
56102;SDS011;41970;48.774;9.280;2023-09-12T05:14:00;13.50;;;11.13;;
56102;SDS011;41970;48.774;9.280;2023-09-12T05:16:28;13.00;;;10.30;;
56102;SDS011;41970;48.774;9.280;2023-09-12T05:18:54;11.60;;;9.53;;
56102;SDS011;41970;48.774;9.280;2023-09-12T05:21:20;17.53;;;11.50;;
56102;SDS011;41970;48.774;9.280;2023-09-12T05:23:46;12.40;;;9.83;;
56102;SDS011;41970;48.774;9.280;2023-09-12T05:26:11;11.50;;;9.70;;
56102;SDS011;41970;48.774;9.280;2023-09-12T05:28:37;13.30;;;9.03;;
56102;SDS011;41970;48.774;9.280;2023-09-12T05:31:03;11.07;;;9.80;;
56102;SDS011;41970;48.774;9.280;2023-09-12T05:33:29;10.07;;;9.13;;
56102;SDS011;41970;48.774;9.280;2023-09-12T05:35:54;14.80;;;10.27;;
56102;SDS011;41970;48.774;9.280;2023-09-12T05:38:20;12.23;;;9.80;;
56102;SDS011;41970;48.774;9.280;2023-09-12T05:40:46;11.13;;;10.03;;
56102;SDS011;41970;48.774;9.280;2023-09-12T05:43:14;11.00;;;9.57;;
56102;SDS011;41970;48.774;9.280;2023-09-12T05:45:40;11.10;;;10.07;;
56102;SDS011;41970;48.774;9.280;2023-09-12T05:48:06;10.50;;;9.40;;
56102;SDS011;41970;48.774;9.280;2023-09-12T05:50:32;12.50;;;9.90;;
56102;SDS011;41970;48.774;9.280;2023-09-12T05:52:58;13.13;;;9.63;;
56102;SDS011;41970;48.774;9.280;2023-09-12T05:55:23;12.20;;;11.00;;
56102;SDS011;41970;48.774;9.280;2023-09-12T05:57:50;10.97;;;9.47;;
56102;SDS011;41970;48.774;9.280;2023-09-12T06:00:18;12.57;;;10.10;;
56102;SDS011;41970;48.774;9.280;2023-09-12T06:02:45;11.77;;;9.67;;
56102;SDS011;41970;48.774;9.280;2023-09-12T06:05:12;10.50;;;9.13;;
56102;SDS011;41970;48.774;9.280;2023-09-12T06:07:37;10.97;;;9.97;;
56102;SDS011;41970;48.774;9.280;2023-09-12T06:10:05;12.57;;;10.00;;
56102;SDS011;41970;48.774;9.280;2023-09-12T06:12:31;14.60;;;10.57;;
56102;SDS011;41970;48.774;9.280;2023-09-12T06:14:58;11.73;;;10.57;;
56102;SDS011;41970;48.774;9.280;2023-09-12T06:17:24;11.80;;;10.60;;
56102;SDS011;41970;48.774;9.280;2023-09-12T06:19:50;15.60;;;10.17;;
56102;SDS011;41970;48.774;9.280;2023-09-12T06:22:16;13.17;;;11.00;;
56102;SDS011;41970;48.774;9.280;2023-09-12T06:24:43;13.50;;;9.87;;
56102;SDS011;41970;48.774;9.280;2023-09-12T06:27:09;9.60;;;8.63;;
56102;SDS011;41970;48.774;9.280;2023-09-12T06:29:37;11.07;;;9.97;;
56102;SDS011;41970;48.774;9.280;2023-09-12T06:32:03;15.43;;;10.13;;
56102;SDS011;41970;48.774;9.280;2023-09-12T06:34:29;11.80;;;9.90;;
56102;SDS011;41970;48.774;9.280;2023-09-12T06:36:55;9.87;;;8.97;;
56102;SDS011;41970;48.774;9.280;2023-09-12T06:39:21;10.13;;;9.10;;
56102;SDS011;41970;48.774;9.280;2023-09-12T06:41:47;10.37;;;9.30;;
56102;SDS011;41970;48.774;9.280;2023-09-12T06:44:13;11.00;;;9.73;;
56102;SDS011;41970;48.774;9.280;2023-09-12T06:46:39;13.57;;;9.50;;
56102;SDS011;41970;48.774;9.280;2023-09-12T06:49:04;10.73;;;9.60;;
56102;SDS011;41970;48.774;9.280;2023-09-12T06:51:30;11.17;;;10.00;;
56102;SDS011;41970;48.774;9.280;2023-09-12T06:53:56;10.77;;;9.20;;
56102;SDS011;41970;48.774;9.280;2023-09-12T06:56:22;12.67;;;10.90;;
56102;SDS011;41970;48.774;9.280;2023-09-12T06:58:48;14.37;;;9.50;;
56102;SDS011;41970;48.774;9.280;2023-09-12T07:01:13;14.20;;;10.53;;
56102;SDS011;41970;48.774;9.280;2023-09-12T07:03:39;10.17;;;9.03;;
56102;SDS011;41970;48.774;9.280;2023-09-12T07:06:05;11.43;;;9.40;;
56102;SDS011;41970;48.774;9.280;2023-09-12T07:08:31;10.17;;;9.20;;
56102;SDS011;41970;48.774;9.280;2023-09-12T07:10:57;12.27;;;8.50;;
56102;SDS011;41970;48.774;9.280;2023-09-12T07:13:24;10.27;;;9.37;;
56102;SDS011;41970;48.774;9.280;2023-09-12T07:15:50;11.87;;;10.43;;
56102;SDS011;41970;48.774;9.280;2023-09-12T07:18:16;11.67;;;10.00;;
56102;SDS011;41970;48.774;9.280;2023-09-12T07:20:42;11.87;;;10.47;;
56102;SDS011;41970;48.774;9.280;2023-09-12T07:23:08;11.90;;;10.07;;
56102;SDS011;41970;48.774;9.280;2023-09-12T07:25:41;16.13;;;10.33;;
56102;SDS011;41970;48.774;9.280;2023-09-12T07:28:07;11.00;;;9.90;;
56102;SDS011;41970;48.774;9.280;2023-09-12T07:30:33;10.17;;;8.70;;
56102;SDS011;41970;48.774;9.280;2023-09-12T07:32:59;18.87;;;9.50;;
56102;SDS011;41970;48.774;9.280;2023-09-12T07:35:24;10.40;;;9.30;;
56102;SDS011;41970;48.774;9.280;2023-09-12T07:37:50;16.20;;;9.30;;
56102;SDS011;41970;48.774;9.280;2023-09-12T07:40:16;10.20;;;9.20;;
56102;SDS011;41970;48.774;9.280;2023-09-12T07:42:43;10.00;;;9.13;;
56102;SDS011;41970;48.774;9.280;2023-09-12T07:45:09;11.20;;;10.10;;
56102;SDS011;41970;48.774;9.280;2023-09-12T07:47:35;9.90;;;9.00;;
56102;SDS011;41970;48.774;9.280;2023-09-12T07:50:00;10.80;;;9.63;;
56102;SDS011;41970;48.774;9.280;2023-09-12T07:52:26;10.23;;;9.20;;
56102;SDS011;41970;48.774;9.280;2023-09-12T07:54:52;12.17;;;8.90;;
56102;SDS011;41970;48.774;9.280;2023-09-12T07:57:23;13.87;;;9.40;;
56102;SDS011;41970;48.774;9.280;2023-09-12T07:59:49;10.90;;;9.03;;
56102;SDS011;41970;48.774;9.280;2023-09-12T08:02:15;9.50;;;8.53;;
56102;SDS011;41970;48.774;9.280;2023-09-12T08:04:40;9.87;;;8.97;;
56102;SDS011;41970;48.774;9.280;2023-09-12T08:07:06;10.17;;;9.00;;
56102;SDS011;41970;48.774;9.280;2023-09-12T08:09:48;11.13;;;10.13;;
56102;SDS011;41970;48.774;9.280;2023-09-12T08:12:19;18.60;;;9.77;;
56102;SDS011;41970;48.774;9.280;2023-09-12T08:14:47;10.30;;;9.03;;
56102;SDS011;41970;48.774;9.280;2023-09-12T08:17:13;13.77;;;9.40;;
56102;SDS011;41970;48.774;9.280;2023-09-12T08:19:40;10.73;;;9.17;;
56102;SDS011;41970;48.774;9.280;2023-09-12T08:22:06;9.67;;;8.77;;
56102;SDS011;41970;48.774;9.280;2023-09-12T08:24:33;10.23;;;8.40;;
56102;SDS011;41970;48.774;9.280;2023-09-12T08:26:59;12.23;;;8.57;;
56102;SDS011;41970;48.774;9.280;2023-09-12T08:29:25;9.67;;;8.77;;
56102;SDS011;41970;48.774;9.280;2023-09-12T08:31:53;11.70;;;8.50;;
56102;SDS011;41970;48.774;9.280;2023-09-12T08:34:18;11.40;;;9.60;;
56102;SDS011;41970;48.774;9.280;2023-09-12T08:36:45;10.20;;;9.20;;
56102;SDS011;41970;48.774;9.280;2023-09-12T08:39:12;10.80;;;9.77;;
56102;SDS011;41970;48.774;9.280;2023-09-12T08:41:42;11.23;;;9.07;;
56102;SDS011;41970;48.774;9.280;2023-09-12T08:44:08;11.80;;;10.37;;
56102;SDS011;41970;48.774;9.280;2023-09-12T08:46:34;9.33;;;8.43;;
56102;SDS011;41970;48.774;9.280;2023-09-12T08:49:02;10.67;;;9.67;;
56102;SDS011;41970;48.774;9.280;2023-09-12T08:51:29;14.47;;;9.27;;
56102;SDS011;41970;48.774;9.280;2023-09-12T08:53:57;11.00;;;9.73;;
56102;SDS011;41970;48.774;9.280;2023-09-12T08:56:24;11.07;;;9.63;;
56102;SDS011;41970;48.774;9.280;2023-09-12T08:58:50;10.10;;;9.07;;
56102;SDS011;41970;48.774;9.280;2023-09-12T09:01:18;13.13;;;8.77;;
56102;SDS011;41970;48.774;9.280;2023-09-12T09:03:45;10.07;;;8.93;;
56102;SDS011;41970;48.774;9.280;2023-09-12T09:06:12;10.27;;;9.27;;
56102;SDS011;41970;48.774;9.280;2023-09-12T09:08:40;10.40;;;9.40;;
56102;SDS011;41970;48.774;9.280;2023-09-12T09:11:06;10.60;;;9.60;;
56102;SDS011;41970;48.774;9.280;2023-09-12T09:13:32;8.53;;;7.83;;
56102;SDS011;41970;48.774;9.280;2023-09-12T09:16:16;11.47;;;8.70;;
56102;SDS011;41970;48.774;9.280;2023-09-12T09:18:51;10.40;;;9.60;;
56102;SDS011;41970;48.774;9.280;2023-09-12T09:21:18;10.00;;;9.07;;
56102;SDS011;41970;48.774;9.280;2023-09-12T09:23:45;10.03;;;9.07;;
56102;SDS011;41970;48.774;9.280;2023-09-12T09:26:12;10.80;;;9.73;;
56102;SDS011;41970;48.774;9.280;2023-09-12T09:28:38;9.83;;;8.80;;
56102;SDS011;41970;48.774;9.280;2023-09-12T09:31:04;10.10;;;9.30;;
56102;SDS011;41970;48.774;9.280;2023-09-12T09:33:36;10.30;;;9.40;;
56102;SDS011;41970;48.774;9.280;2023-09-12T09:36:05;14.07;;;9.40;;
56102;SDS011;41970;48.774;9.280;2023-09-12T09:38:31;11.20;;;10.10;;
56102;SDS011;41970;48.774;9.280;2023-09-12T09:40:59;10.83;;;9.83;;
56102;SDS011;41970;48.774;9.280;2023-09-12T09:43:24;11.53;;;10.33;;
56102;SDS011;41970;48.774;9.280;2023-09-12T09:45:50;10.40;;;9.40;;
56102;SDS011;41970;48.774;9.280;2023-09-12T09:50:46;10.20;;;9.30;;
56102;SDS011;41970;48.774;9.280;2023-09-12T09:53:12;13.10;;;10.97;;
56102;SDS011;41970;48.774;9.280;2023-09-12T09:55:37;11.03;;;9.93;;
56102;SDS011;41970;48.774;9.280;2023-09-12T09:58:06;10.27;;;9.37;;
56102;SDS011;41970;48.774;9.280;2023-09-12T10:00:33;14.53;;;9.43;;
56102;SDS011;41970;48.774;9.280;2023-09-12T10:03:03;9.57;;;8.67;;
56102;SDS011;41970;48.774;9.280;2023-09-12T10:05:31;10.20;;;9.37;;
56102;SDS011;41970;48.774;9.280;2023-09-12T10:07:58;10.33;;;9.20;;
56102;SDS011;41970;48.774;9.280;2023-09-12T10:10:28;10.93;;;10.03;;
56102;SDS011;41970;48.774;9.280;2023-09-12T10:12:57;12.43;;;9.50;;
56102;SDS011;41970;48.774;9.280;2023-09-12T10:15:26;11.07;;;10.00;;
56102;SDS011;41970;48.774;9.280;2023-09-12T10:17:56;10.43;;;9.60;;
56102;SDS011;41970;48.774;9.280;2023-09-12T10:20:24;9.80;;;8.90;;
56102;SDS011;41970;48.774;9.280;2023-09-12T10:23:05;9.40;;;8.60;;
56102;SDS011;41970;48.774;9.280;2023-09-12T10:25:36;10.57;;;9.47;;
56102;SDS011;41970;48.774;9.280;2023-09-12T10:28:05;8.77;;;8.07;;
56102;SDS011;41970;48.774;9.280;2023-09-12T10:30:32;9.87;;;8.87;;
56102;SDS011;41970;48.774;9.280;2023-09-12T10:33:00;10.60;;;9.70;;
56102;SDS011;41970;48.774;9.280;2023-09-12T10:35:29;14.43;;;10.17;;
56102;SDS011;41970;48.774;9.280;2023-09-12T10:37:57;12.40;;;8.03;;
56102;SDS011;41970;48.774;9.280;2023-09-12T10:40:26;9.80;;;9.00;;
56102;SDS011;41970;48.774;9.280;2023-09-12T10:42:54;10.27;;;9.30;;
56102;SDS011;41970;48.774;9.280;2023-09-12T10:45:21;9.63;;;8.73;;
56102;SDS011;41970;48.774;9.280;2023-09-12T10:47:47;9.67;;;8.77;;
56102;SDS011;41970;48.774;9.280;2023-09-12T10:50:13;10.03;;;9.00;;
56102;SDS011;41970;48.774;9.280;2023-09-12T10:52:39;9.60;;;8.70;;
56102;SDS011;41970;48.774;9.280;2023-09-12T10:55:06;9.73;;;8.93;;
56102;SDS011;41970;48.774;9.280;2023-09-12T10:57:33;10.40;;;9.20;;
56102;SDS011;41970;48.774;9.280;2023-09-12T11:02:28;9.00;;;8.20;;
56102;SDS011;41970;48.774;9.280;2023-09-12T11:04:55;10.53;;;9.53;;
56102;SDS011;41970;48.774;9.280;2023-09-12T11:12:40;10.30;;;8.83;;
56102;SDS011;41970;48.774;9.280;2023-09-12T11:15:06;9.03;;;8.23;;
56102;SDS011;41970;48.774;9.280;2023-09-12T11:20:06;10.17;;;8.30;;
56102;SDS011;41970;48.774;9.280;2023-09-12T11:22:45;9.57;;;8.63;;
56102;SDS011;41970;48.774;9.280;2023-09-12T11:25:24;9.07;;;7.93;;
56102;SDS011;41970;48.774;9.280;2023-09-12T11:30:20;10.47;;;8.17;;
56102;SDS011;41970;48.774;9.280;2023-09-12T11:32:49;10.20;;;9.10;;
56102;SDS011;41970;48.774;9.280;2023-09-12T11:35:16;10.53;;;8.90;;
56102;SDS011;41970;48.774;9.280;2023-09-12T11:37:54;10.80;;;9.03;;
56102;SDS011;41970;48.774;9.280;2023-09-12T11:43:00;11.37;;;8.00;;
56102;SDS011;41970;48.774;9.280;2023-09-12T11:45:26;6.90;;;6.30;;
56102;SDS011;41970;48.774;9.280;2023-09-12T11:47:53;7.20;;;6.60;;
56102;SDS011;41970;48.774;9.280;2023-09-12T11:50:35;6.30;;;5.70;;
56102;SDS011;41970;48.774;9.280;2023-09-12T11:53:08;7.17;;;6.57;;
56102;SDS011;41970;48.774;9.280;2023-09-12T11:55:48;8.83;;;7.93;;
56102;SDS011;41970;48.774;9.280;2023-09-12T11:58:17;9.33;;;8.47;;
56102;SDS011;41970;48.774;9.280;2023-09-12T12:00:48;7.73;;;7.13;;
56102;SDS011;41970;48.774;9.280;2023-09-12T12:03:20;8.67;;;8.07;;
56102;SDS011;41970;48.774;9.280;2023-09-12T12:05:50;7.60;;;6.93;;
56102;SDS011;41970;48.774;9.280;2023-09-12T12:08:17;8.90;;;8.10;;
56102;SDS011;41970;48.774;9.280;2023-09-12T12:10:43;8.43;;;7.73;;
56102;SDS011;41970;48.774;9.280;2023-09-12T12:13:17;8.87;;;8.07;;
56102;SDS011;41970;48.774;9.280;2023-09-12T12:15:44;9.00;;;8.20;;
56102;SDS011;41970;48.774;9.280;2023-09-12T12:18:10;9.40;;;8.50;;
56102;SDS011;41970;48.774;9.280;2023-09-12T12:20:36;9.90;;;7.60;;
56102;SDS011;41970;48.774;9.280;2023-09-12T12:23:01;8.10;;;7.30;;
56102;SDS011;41970;48.774;9.280;2023-09-12T12:25:31;8.57;;;7.80;;
56102;SDS011;41970;48.774;9.280;2023-09-12T12:27:59;8.00;;;7.40;;
56102;SDS011;41970;48.774;9.280;2023-09-12T12:30:25;9.40;;;8.30;;
56102;SDS011;41970;48.774;9.280;2023-09-12T12:32:54;8.17;;;7.47;;
56102;SDS011;41970;48.774;9.280;2023-09-12T12:35:21;7.93;;;7.33;;
56102;SDS011;41970;48.774;9.280;2023-09-12T12:37:48;9.40;;;8.50;;
56102;SDS011;41970;48.774;9.280;2023-09-12T12:40:15;9.23;;;7.70;;
56102;SDS011;41970;48.774;9.280;2023-09-12T12:42:42;8.80;;;7.87;;
56102;SDS011;41970;48.774;9.280;2023-09-12T12:47:44;7.70;;;7.10;;
56102;SDS011;41970;48.774;9.280;2023-09-12T12:50:11;7.37;;;6.77;;
56102;SDS011;41970;48.774;9.280;2023-09-12T12:52:37;8.60;;;7.77;;
56102;SDS011;41970;48.774;9.280;2023-09-12T12:55:05;8.00;;;7.20;;
56102;SDS011;41970;48.774;9.280;2023-09-12T12:57:31;7.40;;;6.80;;
56102;SDS011;41970;48.774;9.280;2023-09-12T12:59:58;7.97;;;6.80;;
56102;SDS011;41970;48.774;9.280;2023-09-12T13:02:24;7.53;;;6.73;;
56102;SDS011;41970;48.774;9.280;2023-09-12T13:04:50;7.57;;;6.87;;
56102;SDS011;41970;48.774;9.280;2023-09-12T13:07:16;7.40;;;6.80;;
56102;SDS011;41970;48.774;9.280;2023-09-12T13:09:41;7.83;;;7.17;;
56102;SDS011;41970;48.774;9.280;2023-09-12T13:12:07;7.60;;;6.97;;
56102;SDS011;41970;48.774;9.280;2023-09-12T13:14:33;7.30;;;6.60;;
56102;SDS011;41970;48.774;9.280;2023-09-12T13:16:59;7.23;;;6.53;;
56102;SDS011;41970;48.774;9.280;2023-09-12T13:19:28;7.60;;;6.40;;
56102;SDS011;41970;48.774;9.280;2023-09-12T13:21:54;6.73;;;6.20;;
56102;SDS011;41970;48.774;9.280;2023-09-12T13:24:19;7.90;;;7.10;;
56102;SDS011;41970;48.774;9.280;2023-09-12T13:26:45;7.20;;;6.50;;
56102;SDS011;41970;48.774;9.280;2023-09-12T13:29:11;7.10;;;6.30;;
56102;SDS011;41970;48.774;9.280;2023-09-12T13:31:37;8.40;;;6.70;;
56102;SDS011;41970;48.774;9.280;2023-09-12T13:34:02;6.80;;;6.20;;
56102;SDS011;41970;48.774;9.280;2023-09-12T13:36:28;9.00;;;6.80;;
56102;SDS011;41970;48.774;9.280;2023-09-12T13:38:54;8.60;;;6.47;;
56102;SDS011;41970;48.774;9.280;2023-09-12T13:41:20;8.73;;;6.20;;
56102;SDS011;41970;48.774;9.280;2023-09-12T13:43:48;6.93;;;6.27;;
56102;SDS011;41970;48.774;9.280;2023-09-12T13:46:13;7.27;;;6.57;;
56102;SDS011;41970;48.774;9.280;2023-09-12T13:48:41;6.77;;;6.17;;
56102;SDS011;41970;48.774;9.280;2023-09-12T13:51:07;7.37;;;6.50;;
56102;SDS011;41970;48.774;9.280;2023-09-12T13:53:33;7.10;;;6.40;;
56102;SDS011;41970;48.774;9.280;2023-09-12T13:55:58;7.80;;;6.57;;
56102;SDS011;41970;48.774;9.280;2023-09-12T13:58:26;6.83;;;6.23;;
56102;SDS011;41970;48.774;9.280;2023-09-12T14:00:51;7.20;;;6.60;;
56102;SDS011;41970;48.774;9.280;2023-09-12T14:03:17;6.67;;;6.07;;
56102;SDS011;41970;48.774;9.280;2023-09-12T14:05:43;6.70;;;5.87;;
56102;SDS011;41970;48.774;9.280;2023-09-12T14:08:09;8.17;;;7.37;;
56102;SDS011;41970;48.774;9.280;2023-09-12T14:10:35;7.33;;;6.63;;
56102;SDS011;41970;48.774;9.280;2023-09-12T14:13:01;8.37;;;7.67;;
56102;SDS011;41970;48.774;9.280;2023-09-12T14:15:26;9.60;;;7.33;;
56102;SDS011;41970;48.774;9.280;2023-09-12T14:17:52;7.50;;;6.70;;
56102;SDS011;41970;48.774;9.280;2023-09-12T14:20:18;6.93;;;6.23;;
56102;SDS011;41970;48.774;9.280;2023-09-12T14:22:43;8.30;;;6.93;;
56102;SDS011;41970;48.774;9.280;2023-09-12T14:25:10;8.90;;;6.73;;
56102;SDS011;41970;48.774;9.280;2023-09-12T14:27:42;9.00;;;6.87;;
56102;SDS011;41970;48.774;9.280;2023-09-12T14:30:09;6.87;;;6.17;;
56102;SDS011;41970;48.774;9.280;2023-09-12T14:32:36;7.90;;;7.10;;
56102;SDS011;41970;48.774;9.280;2023-09-12T14:35:02;7.33;;;6.60;;
56102;SDS011;41970;48.774;9.280;2023-09-12T14:37:29;8.80;;;6.57;;
56102;SDS011;41970;48.774;9.280;2023-09-12T14:39:54;8.27;;;7.13;;
56102;SDS011;41970;48.774;9.280;2023-09-12T14:42:21;8.10;;;7.30;;
56102;SDS011;41970;48.774;9.280;2023-09-12T14:44:47;7.10;;;6.40;;
56102;SDS011;41970;48.774;9.280;2023-09-12T14:47:13;9.33;;;6.40;;
56102;SDS011;41970;48.774;9.280;2023-09-12T14:49:38;6.90;;;6.30;;
56102;SDS011;41970;48.774;9.280;2023-09-12T14:52:04;7.90;;;6.90;;
56102;SDS011;41970;48.774;9.280;2023-09-12T14:54:30;12.00;;;8.70;;
56102;SDS011;41970;48.774;9.280;2023-09-12T14:56:56;7.77;;;7.07;;
56102;SDS011;41970;48.774;9.280;2023-09-12T14:59:22;8.33;;;7.60;;